createdAt,value
2019-02-25T00:01:11.578Z,81.86
2019-02-25T00:03:41.403Z,81.56
2019-02-25T00:06:11.204Z,81.75
2019-02-25T00:08:41.059Z,81.64
2019-02-25T00:11:10.767Z,81.94
2019-02-25T00:13:40.496Z,82.01
2019-02-25T00:16:10.660Z,81.93
2019-02-25T00:18:40.478Z,81.17
2019-02-25T00:21:10.247Z,82.28
2019-02-25T00:23:40.042Z,82.11
2019-02-25T00:26:09.778Z,82.07
2019-02-25T00:28:39.728Z,82.09
2019-02-25T00:31:09.475Z,82.17
2019-02-25T00:33:39.287Z,81.97
2019-02-25T00:36:09.139Z,81.98
2019-02-25T00:38:38.858Z,82.37
2019-02-25T00:41:09.358Z,82.20
2019-02-25T00:43:39.114Z,82.29
2019-02-25T00:46:08.798Z,82.66
2019-02-25T00:48:38.523Z,83.01
2019-02-25T00:51:08.188Z,82.25
2019-02-25T00:53:38.010Z,82.71
2019-02-25T00:56:07.718Z,82.75
2019-02-25T00:58:37.438Z,82.94
2019-02-25T01:01:07.170Z,83.04
2019-02-25T01:03:36.933Z,82.69
2019-02-25T01:06:06.746Z,82.85
2019-02-25T01:08:36.618Z,82.76
2019-02-25T01:11:06.438Z,82.80
2019-02-25T01:13:36.162Z,82.94
2019-02-25T01:16:08.658Z,83.16
2019-02-25T01:18:38.467Z,82.82
2019-02-25T01:21:08.238Z,83.16
2019-02-25T01:23:38.024Z,83.32
2019-02-25T01:26:07.778Z,83.27
2019-02-25T01:28:37.534Z,83.32
2019-02-25T01:31:07.365Z,83.51
2019-02-25T01:33:37.109Z,83.57
2019-02-25T01:36:06.876Z,83.69
2019-02-25T01:38:36.983Z,83.96
2019-02-25T01:41:06.725Z,83.89
2019-02-25T01:43:36.463Z,83.88
2019-02-25T01:46:06.306Z,83.93
2019-02-25T01:48:36.020Z,83.93
2019-02-25T01:51:05.769Z,83.68
2019-02-25T01:53:36.589Z,82.90
2019-02-25T01:56:07.603Z,82.90
2019-02-25T01:58:37.358Z,83.15
2019-02-25T02:01:07.116Z,83.51
2019-02-25T02:03:36.818Z,83.57
2019-02-25T02:06:06.613Z,83.78
2019-02-25T02:08:36.369Z,83.77
2019-02-25T02:11:06.087Z,83.62
2019-02-25T02:13:35.814Z,83.69
2019-02-25T02:16:05.637Z,83.30
2019-02-25T02:18:35.556Z,83.43
2019-02-25T02:21:05.394Z,83.72
2019-02-25T02:23:35.100Z,83.62
2019-02-25T02:26:04.788Z,83.20
2019-02-25T02:28:37.822Z,83.57
2019-02-25T02:31:07.633Z,84.15
2019-02-25T02:33:37.355Z,84.36
2019-02-25T02:36:11.405Z,84.54
2019-02-25T02:38:39.786Z,84.54
2019-02-25T02:41:09.507Z,84.70
2019-02-25T02:43:39.294Z,84.93
2019-02-25T02:46:29.522Z,84.65
2019-02-25T02:49:02.225Z,84.75
2019-02-25T02:51:32.057Z,84.79
2019-02-25T02:54:01.779Z,84.77
2019-02-25T02:56:31.540Z,84.38
2019-02-25T02:59:01.363Z,84.49
2019-02-25T03:01:31.159Z,84.67
2019-02-25T03:04:00.968Z,84.76
2019-02-25T03:06:30.738Z,84.80
2019-02-25T03:09:00.451Z,85.00
2019-02-25T03:11:30.146Z,84.79
2019-02-25T03:13:59.867Z,85.09
2019-02-25T03:16:29.602Z,85.40
2019-02-25T03:18:59.350Z,85.44
2019-02-25T03:21:29.263Z,85.53
2019-02-25T03:23:59.199Z,85.82
2019-02-25T03:26:29.017Z,85.69
2019-02-25T03:28:58.758Z,85.21
2019-02-25T03:31:28.435Z,85.46
2019-02-25T03:33:58.221Z,85.09
2019-02-25T03:36:27.964Z,84.92
2019-02-25T03:38:57.693Z,84.99
2019-02-25T03:41:27.536Z,84.87
2019-02-25T03:43:58.193Z,84.83
2019-02-25T03:46:27.989Z,84.93
2019-02-25T03:48:57.701Z,85.17
2019-02-25T03:51:27.416Z,85.30
2019-02-25T03:53:57.149Z,85.37
2019-02-25T03:56:26.926Z,85.45
2019-02-25T03:58:56.742Z,85.40
2019-02-25T04:01:26.525Z,84.11
2019-02-25T04:03:56.368Z,84.57
2019-02-25T04:06:26.254Z,85.13
2019-02-25T04:08:56.353Z,85.33
2019-02-25T04:11:26.083Z,85.38
2019-02-25T04:13:55.759Z,85.59
2019-02-25T04:16:25.526Z,85.82
2019-02-25T04:18:55.225Z,85.92
2019-02-25T04:21:25.101Z,85.99
2019-02-25T04:23:54.791Z,86.11
2019-02-25T04:26:24.489Z,86.10
2019-02-25T04:28:56.259Z,85.72
2019-02-25T04:31:25.979Z,85.61
2019-02-25T04:33:55.706Z,85.68
2019-02-25T04:36:25.417Z,85.47
2019-02-25T04:38:55.127Z,85.16
2019-02-25T04:41:24.840Z,85.00
2019-02-25T04:43:54.557Z,85.17
2019-02-25T04:46:24.285Z,85.25
2019-02-25T04:48:54.040Z,85.54
2019-02-25T04:51:23.778Z,85.39
2019-02-25T04:53:53.549Z,85.12
2019-02-25T04:56:25.312Z,85.21
2019-02-25T04:58:54.785Z,85.39
2019-02-25T05:01:24.548Z,85.73
2019-02-25T05:03:54.321Z,85.56
2019-02-25T05:06:24.063Z,85.95
2019-02-25T05:08:53.907Z,86.07
2019-02-25T05:11:25.784Z,86.29
2019-02-25T05:13:55.634Z,86.44
2019-02-25T05:16:25.345Z,86.35
2019-02-25T05:18:55.080Z,86.37
2019-02-25T05:21:24.779Z,86.04
2019-02-25T05:23:54.678Z,85.86
2019-02-25T05:26:24.433Z,85.90
2019-02-25T05:28:54.160Z,85.87
2019-02-25T05:31:23.885Z,85.99
2019-02-25T05:33:53.700Z,86.19
2019-02-25T05:36:23.517Z,86.24
2019-02-25T05:38:53.241Z,86.38
2019-02-25T05:41:23.047Z,86.37
2019-02-25T05:43:52.910Z,86.07
2019-02-25T05:46:22.605Z,85.79
2019-02-25T05:48:52.350Z,85.43
2019-02-25T05:51:22.051Z,85.47
2019-02-25T05:53:51.830Z,85.99
2019-02-25T05:56:21.549Z,86.27
2019-02-25T05:58:51.359Z,86.22
2019-02-25T06:01:21.126Z,86.22
2019-02-25T06:03:50.953Z,86.03
2019-02-25T06:06:20.818Z,86.04
2019-02-25T06:08:50.561Z,85.73
2019-02-25T06:11:20.396Z,85.71
2019-02-25T06:13:50.090Z,86.26
2019-02-25T06:16:19.868Z,86.32
2019-02-25T06:18:49.582Z,86.27
2019-02-25T06:21:19.356Z,86.38
2019-02-25T06:23:49.077Z,86.42
2019-02-25T06:26:18.811Z,86.43
2019-02-25T06:28:48.597Z,85.72
2019-02-25T06:31:18.373Z,86.07
2019-02-25T06:33:48.138Z,86.21
2019-02-25T06:36:17.892Z,86.27
2019-02-25T06:38:47.629Z,86.12
2019-02-25T06:41:17.375Z,86.00
2019-02-25T06:43:47.126Z,85.50
2019-02-25T06:46:16.912Z,85.70
2019-02-25T06:48:46.689Z,85.76
2019-02-25T06:51:16.507Z,85.94
2019-02-25T06:53:46.205Z,85.57
2019-02-25T06:56:16.066Z,85.78
2019-02-25T06:58:45.771Z,85.69
2019-02-25T07:01:15.558Z,85.30
2019-02-25T07:03:46.930Z,86.11
2019-02-25T07:06:20.974Z,85.57
2019-02-25T07:08:55.358Z,85.67
2019-02-25T07:11:30.153Z,85.52
2019-02-25T07:14:04.322Z,85.40
2019-02-25T07:16:45.973Z,84.74
2019-02-25T07:19:23.693Z,84.57
2019-02-25T07:21:55.074Z,83.75
2019-02-25T07:24:26.402Z,83.67
2019-02-25T07:26:57.796Z,83.82
2019-02-25T07:29:41.265Z,83.59
2019-02-25T07:32:24.537Z,83.26
2019-02-25T07:35:02.237Z,82.76
2019-02-25T07:37:33.562Z,82.77
2019-02-25T07:40:05.699Z,82.39
2019-02-25T07:42:43.065Z,82.45
2019-02-25T07:45:22.973Z,82.16
2019-02-25T07:47:57.403Z,81.99
2019-02-25T07:50:28.676Z,82.06
2019-02-25T07:53:00.094Z,81.78
2019-02-25T07:55:40.158Z,81.60
2019-02-25T07:58:14.446Z,81.00
2019-02-25T08:00:48.503Z,80.12
2019-02-25T08:03:19.839Z,80.68
2019-02-25T08:06:09.348Z,80.64
2019-02-25T08:08:55.943Z,80.15
2019-02-25T08:11:30.196Z,80.07
2019-02-25T08:14:01.623Z,80.32
2019-02-25T08:16:41.941Z,80.80
2019-02-25T08:19:13.362Z,80.36
2019-02-25T08:21:59.814Z,80.41
2019-02-25T08:24:31.279Z,79.83
2019-02-25T08:27:18.815Z,79.84
2019-02-25T08:29:50.339Z,79.42
2019-02-25T08:32:30.686Z,78.67
2019-02-25T08:35:04.954Z,78.59
2019-02-25T08:37:51.524Z,78.74
2019-02-25T08:40:34.731Z,78.94
2019-02-25T08:43:09.151Z,78.88
2019-02-25T08:45:40.523Z,78.60
2019-02-25T08:48:14.795Z,78.77
2019-02-25T08:50:44.587Z,78.38
2019-02-25T08:53:14.441Z,78.02
2019-02-25T08:55:44.171Z,77.11
2019-02-25T08:58:13.973Z,78.89
2019-02-25T09:00:43.721Z,78.17
2019-02-25T09:03:13.392Z,77.70
2019-02-25T09:05:43.125Z,78.10
2019-02-25T09:08:12.763Z,77.45
2019-02-25T09:10:42.444Z,77.99
2019-02-25T09:13:12.082Z,77.39
2019-02-25T09:15:41.763Z,77.90
2019-02-25T09:18:11.459Z,77.51
2019-02-25T09:20:41.355Z,77.39
2019-02-25T09:23:11.035Z,77.62
2019-02-25T09:25:40.787Z,77.38
2019-02-25T09:28:10.552Z,77.30
2019-02-25T09:30:40.310Z,77.12
2019-02-25T09:33:10.011Z,77.88
2019-02-25T09:35:39.770Z,77.96
2019-02-25T09:38:09.530Z,78.09
2019-02-25T09:40:39.223Z,77.66
2019-02-25T09:43:08.935Z,77.25
2019-02-25T09:45:38.812Z,76.49
2019-02-25T09:48:08.562Z,76.20
2019-02-25T09:50:38.431Z,75.41
2019-02-25T09:53:08.160Z,74.84
2019-02-25T09:55:37.886Z,75.20
2019-02-25T09:58:07.560Z,74.31
2019-02-25T10:00:37.330Z,74.48
2019-02-25T10:03:07.767Z,73.64
2019-02-25T10:05:37.576Z,73.86
2019-02-25T10:08:07.341Z,74.22
2019-02-25T10:10:37.201Z,73.94
2019-02-25T10:13:06.928Z,73.99
2019-02-25T10:15:36.658Z,73.44
2019-02-25T10:18:06.470Z,72.96
2019-02-25T10:20:36.314Z,72.74
2019-02-25T10:23:06.075Z,72.56
2019-02-25T10:25:35.895Z,72.38
2019-02-25T10:28:05.815Z,73.24
2019-02-25T10:30:35.566Z,72.79
2019-02-25T10:33:05.284Z,72.00
2019-02-25T10:35:34.990Z,72.44
2019-02-25T10:38:04.868Z,72.22
2019-02-25T10:40:34.506Z,71.66
2019-02-25T10:43:04.216Z,71.48
2019-02-25T10:45:35.090Z,71.58
2019-02-25T10:48:05.472Z,70.92
2019-02-25T10:50:35.984Z,71.44
2019-02-25T10:53:06.142Z,71.27
2019-02-25T10:55:46.755Z,71.67
2019-02-25T10:58:16.512Z,71.78
2019-02-25T11:00:46.202Z,71.94
2019-02-25T11:03:17.986Z,71.47
2019-02-25T11:05:47.224Z,70.76
2019-02-25T11:08:18.596Z,69.99
2019-02-25T11:10:55.637Z,70.18
2019-02-25T11:13:27.429Z,69.28
2019-02-25T11:15:56.797Z,69.64
2019-02-25T11:18:28.316Z,68.54
2019-02-25T11:20:59.083Z,68.18
2019-02-25T11:23:29.180Z,67.87
2019-02-25T11:26:00.013Z,67.17
2019-02-25T11:28:31.735Z,67.22
2019-02-25T11:31:01.538Z,67.42
2019-02-25T11:33:33.928Z,68.58
2019-02-25T11:36:02.541Z,67.88
2019-02-25T11:38:35.475Z,67.11
2019-02-25T11:41:06.026Z,67.56
2019-02-25T11:43:34.934Z,68.14
2019-02-25T11:46:04.727Z,67.04
2019-02-25T11:48:34.386Z,67.17
2019-02-25T11:51:04.044Z,67.34
2019-02-25T11:53:33.685Z,66.79
2019-02-25T11:56:03.305Z,67.43
2019-02-25T11:58:33.017Z,66.03
2019-02-25T12:01:02.733Z,66.66
2019-02-25T12:03:32.385Z,65.93
2019-02-25T12:06:02.144Z,67.33
2019-02-25T12:08:31.877Z,66.18
2019-02-25T12:11:01.515Z,66.12
2019-02-25T12:13:31.237Z,66.06
2019-02-25T12:16:00.954Z,66.23
2019-02-25T12:18:31.899Z,64.84
2019-02-25T12:21:02.021Z,65.10
2019-02-25T12:23:31.930Z,65.19
2019-02-25T12:26:01.714Z,64.94
2019-02-25T12:28:31.477Z,63.21
2019-02-25T12:31:01.166Z,64.35
2019-02-25T12:33:30.864Z,64.72
2019-02-25T12:36:00.579Z,63.86
2019-02-25T12:38:30.364Z,64.60
2019-02-25T12:41:00.303Z,64.12
2019-02-25T12:43:30.120Z,64.21
2019-02-25T12:45:59.806Z,64.73
2019-02-25T12:48:29.551Z,64.42
2019-02-25T12:50:59.299Z,64.50
2019-02-25T12:53:29.469Z,64.01
2019-02-25T12:55:59.175Z,64.11
2019-02-25T12:58:28.938Z,65.03
2019-02-25T13:00:58.753Z,65.00
2019-02-25T13:03:28.552Z,64.27
2019-02-25T13:05:58.313Z,64.54
2019-02-25T13:08:28.076Z,63.60
2019-02-25T13:10:57.891Z,64.60
2019-02-25T13:13:27.654Z,63.44
2019-02-25T13:15:57.397Z,64.79
2019-02-25T13:18:27.273Z,63.33
2019-02-25T13:20:57.128Z,63.01
2019-02-25T13:23:28.034Z,63.27
2019-02-25T13:26:07.235Z,63.53
2019-02-25T13:28:31.108Z,64.21
2019-02-25T13:31:02.925Z,64.20
2019-02-25T13:33:34.968Z,64.05
2019-02-25T13:36:07.835Z,63.67
2019-02-25T13:38:37.819Z,63.94
2019-02-25T13:41:07.520Z,64.08
2019-02-25T13:43:37.275Z,63.34
2019-02-25T13:46:08.954Z,62.80
2019-02-25T13:48:38.381Z,63.13
2019-02-25T13:51:08.339Z,63.24
2019-02-25T13:53:38.346Z,62.23
2019-02-25T13:56:08.223Z,62.17
2019-02-25T13:58:38.396Z,61.62
2019-02-25T14:01:08.365Z,61.84
2019-02-25T14:03:38.054Z,61.65
2019-02-25T14:06:09.636Z,61.23
2019-02-25T14:08:39.395Z,61.81
2019-02-25T14:11:09.067Z,61.87
2019-02-25T14:13:38.762Z,62.17
2019-02-25T14:16:08.522Z,61.56
2019-02-25T14:18:38.536Z,59.87
2019-02-25T14:21:08.208Z,60.21
2019-02-25T14:23:38.294Z,59.73
2019-02-25T14:26:09.275Z,60.12
2019-02-25T14:28:39.020Z,59.47
2019-02-25T14:31:10.005Z,59.32
2019-02-25T14:33:39.983Z,59.75
2019-02-25T14:36:10.602Z,58.74
2019-02-25T14:38:40.639Z,59.17
2019-02-25T14:41:11.724Z,59.14
2019-02-25T14:43:46.191Z,59.95
2019-02-25T14:46:14.435Z,58.84
2019-02-25T14:48:44.341Z,61.11
2019-02-25T14:51:14.037Z,59.41
2019-02-25T14:53:44.716Z,56.59
2019-02-25T14:56:15.077Z,56.27
2019-02-25T14:58:45.603Z,55.44
2019-02-25T15:01:17.880Z,56.47
2019-02-25T15:03:47.384Z,56.29
2019-02-25T15:06:17.158Z,56.59
2019-02-25T15:08:46.841Z,55.80
2019-02-25T15:11:16.485Z,55.92
2019-02-25T15:13:46.265Z,55.45
2019-02-25T15:16:16.036Z,55.13
2019-02-25T15:18:45.893Z,54.75
2019-02-25T15:21:16.023Z,55.52
2019-02-25T15:23:45.869Z,55.71
2019-02-25T15:26:17.293Z,55.31
2019-02-25T15:28:47.187Z,55.85
2019-02-25T15:31:16.962Z,56.72
2019-02-25T15:33:46.737Z,57.23
2019-02-25T15:36:17.887Z,56.90
2019-02-25T15:38:47.965Z,57.16
2019-02-25T15:41:17.778Z,57.50
2019-02-25T15:43:47.552Z,57.44
2019-02-25T15:46:19.600Z,57.64
2019-02-25T15:48:49.125Z,57.69
2019-02-25T15:51:19.340Z,57.79
2019-02-25T15:53:51.388Z,57.65
2019-02-25T15:56:20.460Z,58.24
2019-02-25T15:58:50.173Z,57.49
2019-02-25T16:01:21.131Z,57.36
2019-02-25T16:03:50.946Z,57.40
2019-02-25T16:06:21.009Z,57.47
2019-02-25T16:08:52.156Z,58.56
2019-02-25T16:11:25.560Z,58.95
2019-02-25T16:13:55.380Z,58.68
2019-02-25T16:16:25.374Z,59.00
2019-02-25T16:18:55.078Z,59.74
2019-02-25T16:21:26.692Z,59.90
2019-02-25T16:23:59.322Z,60.67
2019-02-25T16:26:28.396Z,61.64
2019-02-25T16:28:59.580Z,62.66
2019-02-25T16:31:30.976Z,63.20
2019-02-25T16:34:01.012Z,63.59
2019-02-25T16:36:32.352Z,64.27
2019-02-25T16:39:05.293Z,64.30
2019-02-25T16:41:36.570Z,65.02
2019-02-25T16:44:06.900Z,65.00
2019-02-25T16:46:39.420Z,64.99
2019-02-25T16:49:08.910Z,65.50
2019-02-25T16:51:38.789Z,65.65
2019-02-25T16:54:11.075Z,65.98
2019-02-25T16:56:39.928Z,66.41
2019-02-25T16:59:11.151Z,67.34
2019-02-25T17:01:41.681Z,68.09
2019-02-25T17:04:12.184Z,68.41
2019-02-25T17:06:43.159Z,68.50
2019-02-25T17:09:18.247Z,68.59
2019-02-25T17:11:48.546Z,67.87
2019-02-25T17:14:19.186Z,67.98
2019-02-25T17:16:49.687Z,68.00
2019-02-25T17:19:22.114Z,67.72
2019-02-25T17:21:51.298Z,67.69
2019-02-25T17:24:23.711Z,67.68
2019-02-25T17:26:52.423Z,67.31
2019-02-25T17:29:23.111Z,67.23
2019-02-25T17:31:54.766Z,67.69
2019-02-25T17:34:25.184Z,67.67
2019-02-25T17:36:55.121Z,67.62
2019-02-25T17:39:24.870Z,67.97
2019-02-25T17:41:54.570Z,68.32
2019-02-25T17:44:27.837Z,68.02
2019-02-25T17:46:58.017Z,68.03
2019-02-25T17:49:27.138Z,68.28
2019-02-25T17:51:57.805Z,67.83
2019-02-25T17:54:29.467Z,67.93
2019-02-25T17:56:59.917Z,68.56
2019-02-25T17:59:31.512Z,69.15
2019-02-25T18:02:02.292Z,69.58
2019-02-25T18:04:33.034Z,69.96
2019-02-25T18:07:04.082Z,70.09
2019-02-25T18:09:33.823Z,70.44
2019-02-25T18:12:06.490Z,70.52
2019-02-25T18:14:37.409Z,70.64
2019-02-25T18:17:08.373Z,71.27
2019-02-25T18:19:41.722Z,71.43
2019-02-25T18:22:11.646Z,72.01
2019-02-25T18:24:43.880Z,71.75
2019-02-25T18:27:13.750Z,72.58
2019-02-25T18:29:44.045Z,72.41
2019-02-25T18:32:16.013Z,72.35
2019-02-25T18:34:45.969Z,71.72
2019-02-25T18:37:17.701Z,71.71
2019-02-25T18:39:48.433Z,71.91
2019-02-25T18:42:20.322Z,71.41
2019-02-25T18:44:51.319Z,70.63
2019-02-25T18:47:23.422Z,70.80
2019-02-25T18:49:54.398Z,71.14
2019-02-25T18:52:27.159Z,71.19
2019-02-25T18:54:56.289Z,71.64
2019-02-25T18:57:27.349Z,71.65
2019-02-25T18:59:59.279Z,71.78
2019-02-25T19:02:29.489Z,71.99
2019-02-25T19:05:01.940Z,71.75
2019-02-25T19:07:33.187Z,71.91
2019-02-25T19:10:05.904Z,71.80
2019-02-25T19:12:35.872Z,71.96
2019-02-25T19:15:07.159Z,72.77
2019-02-25T19:17:37.198Z,72.35
2019-02-25T19:20:11.407Z,72.46
2019-02-25T19:22:43.882Z,72.27
2019-02-25T19:25:18.181Z,71.79
2019-02-25T19:27:47.889Z,71.67
2019-02-25T19:30:20.178Z,71.88
2019-02-25T19:32:51.026Z,72.30
2019-02-25T19:35:23.414Z,72.09
2019-02-25T19:37:52.374Z,72.24
2019-02-25T19:40:24.543Z,72.66
2019-02-25T19:42:56.790Z,73.50
2019-02-25T19:45:26.662Z,73.74
2019-02-25T19:47:58.345Z,73.63
2019-02-25T19:50:29.573Z,73.87
2019-02-25T19:53:02.538Z,73.78
2019-02-25T19:55:31.024Z,74.00
2019-02-25T19:58:01.087Z,74.19
2019-02-25T20:00:33.278Z,74.31
2019-02-25T20:03:05.561Z,74.34
2019-02-25T20:05:33.979Z,74.69
2019-02-25T20:08:03.843Z,74.87
2019-02-25T20:10:33.801Z,75.28
2019-02-25T20:13:07.731Z,75.67
2019-02-25T20:15:42.377Z,76.00
2019-02-25T20:18:13.917Z,75.89
2019-02-25T20:20:44.336Z,76.51
2019-02-25T20:23:15.277Z,76.97
2019-02-25T20:25:47.077Z,76.70
2019-02-25T20:28:18.683Z,76.99
2019-02-25T20:30:49.386Z,77.35
2019-02-25T20:33:19.925Z,77.48
2019-02-25T20:35:51.668Z,77.77
2019-02-25T20:38:22.807Z,77.98
2019-02-25T20:40:53.082Z,78.22
2019-02-25T20:43:24.127Z,78.04
2019-02-25T20:45:56.445Z,78.23
2019-02-25T20:48:27.481Z,78.06
2019-02-25T20:50:59.655Z,78.11
2019-02-25T20:53:30.061Z,78.14
2019-02-25T20:56:00.068Z,78.22
2019-02-25T20:58:29.893Z,78.62
2019-02-25T21:00:59.559Z,78.57
2019-02-25T21:03:29.276Z,78.69
2019-02-25T21:05:59.085Z,78.90
2019-02-25T21:08:28.753Z,79.52
2019-02-25T21:10:59.869Z,78.98
2019-02-25T21:13:31.367Z,79.30
2019-02-25T21:16:02.688Z,79.15
2019-02-25T21:18:32.537Z,79.29
2019-02-25T21:21:02.288Z,79.31
2019-02-25T21:23:32.083Z,80.39
2019-02-25T21:26:04.298Z,80.37
2019-02-25T21:28:33.754Z,80.65
2019-02-25T21:31:07.143Z,81.18
2019-02-25T21:33:35.922Z,81.04
2019-02-25T21:36:05.646Z,81.22
2019-02-25T21:38:35.408Z,81.35
2019-02-25T21:41:07.476Z,80.92
2019-02-25T21:43:36.761Z,81.39
2019-02-25T21:46:06.473Z,81.27
2019-02-25T21:48:36.964Z,81.11
2019-02-25T21:51:08.028Z,81.13
2019-02-25T21:53:38.440Z,81.24
2019-02-25T21:56:10.174Z,81.64
2019-02-25T21:58:39.661Z,81.90
2019-02-25T22:01:09.587Z,81.38
2019-02-25T22:03:41.276Z,81.80
2019-02-25T22:06:10.944Z,82.06
2019-02-25T22:08:40.728Z,82.51
2019-02-25T22:11:14.782Z,83.52
2019-02-25T22:13:41.934Z,83.35
2019-02-25T22:16:11.699Z,82.91
2019-02-25T22:18:41.517Z,82.43
2019-02-25T22:21:12.251Z,82.50
2019-02-25T22:23:42.687Z,82.46
2019-02-25T22:26:12.397Z,82.76
2019-02-25T22:28:42.155Z,83.54
2019-02-25T22:31:13.868Z,83.14
2019-02-25T22:33:43.571Z,83.92
2019-02-25T22:36:13.360Z,84.05
2019-02-25T22:38:43.122Z,83.76
2019-02-25T22:41:12.995Z,83.51
2019-02-25T22:43:44.295Z,83.46
2019-02-25T22:46:14.285Z,83.51
2019-02-25T22:48:45.512Z,83.70
2019-02-25T22:51:15.432Z,83.19
2019-02-25T22:53:45.137Z,83.03
2019-02-25T22:56:15.917Z,83.02
2019-02-25T22:58:46.566Z,82.96
2019-02-25T23:01:18.089Z,82.86
2019-02-25T23:03:49.886Z,82.95
2019-02-25T23:06:21.354Z,83.41
2019-02-25T23:08:51.117Z,83.59
2019-02-25T23:11:24.360Z,84.72
2019-02-25T23:13:54.845Z,84.75
2019-02-25T23:16:25.460Z,84.50
2019-02-25T23:18:56.926Z,84.92
2019-02-25T23:21:28.805Z,84.56
2019-02-25T23:24:00.465Z,84.69
2019-02-25T23:26:29.622Z,84.81
2019-02-25T23:28:59.805Z,84.43
2019-02-25T23:31:30.675Z,85.73
2019-02-25T23:34:00.483Z,85.96
2019-02-25T23:36:30.293Z,86.24
2019-02-25T23:39:01.626Z,86.71
2019-02-25T23:41:34.347Z,86.58
2019-02-25T23:44:03.121Z,86.52
2019-02-25T23:46:34.602Z,86.79
2019-02-25T23:49:04.320Z,86.46
2019-02-25T23:51:34.187Z,87.15
2019-02-25T23:54:03.911Z,87.25
2019-02-25T23:56:33.681Z,86.36
2019-02-25T23:59:03.498Z,86.76
